Time;durP1;ratioP1;P1;durP2;ratioP2;P2;SDS_P1;SDS_P2;PMS_P1;PMS_P2;Temp;Humidity;BMP_temperature;BMP_pressure;BME280_temperature;BME280_humidity;BME280_pressure;Samples;Min_cycle;Max_cycle;Signal;HPM_P1;HPM_P2
2023/10/10 00:02:20;;;;;;;;;;;;;;;15.76;47.75;99843.59;5052707;28;19920;-77
2023/10/10 00:04:47;;;;;;;;;;;;;;;15.66;47.24;99848.50;5052769;28;19921;-77
2023/10/10 00:07:14;;;;;;;;;;;;;;;15.57;47.42;99839.03;5052709;28;19913;-79
2023/10/10 00:09:40;;;;;;;;;;;;;;;15.46;48.38;99831.63;5052850;28;20012;-76
2023/10/10 00:12:06;;;;;;;;;;;;;;;15.45;47.37;99835.31;5051750;28;20382;-74
2023/10/10 00:14:32;;;;;;;;;;;;;;;15.44;47.66;99831.84;5052535;28;20371;-77
2023/10/10 00:16:59;;;;;;;;;;;;;;;15.46;48.18;99834.28;5052466;28;20000;-75
2023/10/10 00:19:37;;;;;;;;;;;;;;;15.53;47.18;99822.63;5052302;28;19978;-74
2023/10/10 00:22:05;;;;;;;;;;;;;;;15.53;47.22;99821.81;5050971;28;19966;-77
2023/10/10 00:24:31;;;;;;;;;;;;;;;15.52;47.16;99814.84;5052268;28;19912;-78
2023/10/10 00:27:13;;;;;;;;;;;;;;;15.54;46.89;99804.81;5052265;28;20290;-77
2023/10/10 00:29:44;;;;;;;;;;;;;;;15.52;47.54;99801.56;5052331;28;20246;-75
2023/10/10 00:32:17;;;;;;;;;;;;;;;15.48;47.61;99802.97;5052390;28;19913;-77
2023/10/10 00:34:47;;;;;;;;;;;;;;;15.41;47.89;99795.00;5052239;28;19912;-77
2023/10/10 00:37:13;;;;;;;;;;;;;;;15.39;47.67;99791.72;5052404;28;20508;-77
2023/10/10 00:39:38;;;;;;;;;;;;;;;15.40;47.02;99793.34;5052106;28;19955;-77
2023/10/10 00:42:17;;;;;;;;;;;;;;;15.39;47.08;99791.72;5052250;28;19909;-78
2023/10/10 00:44:42;;;;;;;;;;;;;;;15.35;47.26;99774.53;5052009;28;20320;-78
2023/10/10 00:47:13;;;;;;;;;;;;;;;15.33;47.20;99757.13;5052153;28;19919;-77
2023/10/10 00:49:39;;;;;;;;;;;;;;;15.24;47.57;99761.81;5052114;28;19917;-78
2023/10/10 00:52:08;;;;;;;;;;;;;;;15.14;47.26;99764.88;5052066;28;20372;-78
2023/10/10 00:54:39;;;;;;;;;;;;;;;15.06;47.24;99769.56;5052155;28;19920;-77
2023/10/10 00:57:08;;;;;;;;;;;;;;;14.99;47.92;99772.22;5052218;28;19913;-78
2023/10/10 00:59:42;;;;;;;;;;;;;;;14.95;47.83;99781.59;5051934;28;20000;-77
2023/10/10 01:02:10;;;;;;;;;;;;;;;14.92;47.60;99796.13;5051892;28;19912;-77
2023/10/10 01:04:39;;;;;;;;;;;;;;;14.99;47.07;99792.66;5050341;28;19925;-76
2023/10/10 01:07:08;;;;;;;;;;;;;;;14.97;47.65;99792.88;5051789;28;19992;-76
2023/10/10 01:09:34;;;;;;;;;;;;;;;14.94;47.51;99787.94;5051701;28;19956;-76
2023/10/10 01:12:04;;;;;;;;;;;;;;;14.92;47.68;99793.47;5051849;28;19920;-75
2023/10/10 01:14:30;;;;;;;;;;;;;;;14.88;47.71;99786.09;5051918;28;19919;-77
2023/10/10 01:16:57;;;;;;;;;;;;;;;14.83;48.51;99781.34;5051924;28;19913;-76
2023/10/10 01:19:28;;;;;;;;;;;;;;;14.85;48.17;99770.50;5051624;28;19927;-76
2023/10/10 01:21:57;;;;;;;;;;;;;;;14.88;48.65;99776.28;5050285;28;19913;-76
2023/10/10 01:24:23;;;;;;;;;;;;;;;14.92;47.27;99764.22;5051290;28;19917;-77
2023/10/10 01:26:51;;;;;;;;;;;;;;;14.96;47.51;99771.78;5051733;28;19971;-77
2023/10/10 01:29:25;;;;;;;;;;;;;;;14.99;47.92;99774.88;5051630;28;20332;-76
2023/10/10 01:31:58;;;;;;;;;;;;;;;14.96;48.64;99777.09;5051628;28;20313;-76
2023/10/10 01:34:31;;;;;;;;;;;;;;;14.97;47.89;99768.94;5050261;28;19913;-77
2023/10/10 01:37:00;;;;;;;;;;;;;;;14.94;48.26;99772.00;5051667;28;19913;-76
2023/10/10 01:39:45;;;;;;;;;;;;;;;15.00;48.10;99762.41;5051515;28;19913;-76
2023/10/10 01:42:11;;;;;;;;;;;;;;;15.09;47.29;99764.66;5051465;28;21058;-76
2023/10/10 01:44:37;;;;;;;;;;;;;;;15.13;47.23;99779.19;5051514;28;20441;-76
2023/10/10 01:47:03;;;;;;;;;;;;;;;15.08;47.78;99784.31;5051456;28;19959;-76
2023/10/10 01:49:31;;;;;;;;;;;;;;;14.99;47.28;99777.53;5051340;28;19940;-76
2023/10/10 01:51:58;;;;;;;;;;;;;;;14.94;47.87;99779.97;5051345;28;19956;-76
2023/10/10 01:54:34;;;;;;;;;;;;;;;14.89;47.58;99775.25;5051353;28;19996;-76
2023/10/10 01:57:00;;;;;;;;;;;;;;;14.88;47.79;99770.13;5051343;28;19944;-76
2023/10/10 01:59:33;;;;;;;;;;;;;;;14.93;47.35;99773.00;5051438;28;19952;-77
2023/10/10 02:01:58;;;;;;;;;;;;;;;14.96;47.65;99777.94;5051387;28;19919;-76
2023/10/10 02:04:27;;;;;;;;;;;;;;;15.00;47.16;99786.31;5051153;28;20344;-77
2023/10/10 02:06:57;;;;;;;;;;;;;;;15.00;47.17;99779.16;5049943;28;19959;-76
2023/10/10 02:11:53;;;;;;;;;;;;;;;14.92;47.06;99787.31;5051715;28;20008;-76
2023/10/10 02:14:24;;;;;;;;;;;;;;;14.88;47.18;99799.38;5051288;28;19913;-77
2023/10/10 02:16:49;;;;;;;;;;;;;;;14.84;47.48;99790.13;5051235;28;19912;-76
2023/10/10 02:19:25;;;;;;;;;;;;;;;14.76;48.28;99798.28;5051143;28;20352;-76
2023/10/10 02:22:02;;;;;;;;;;;;;;;14.73;48.25;99796.03;5050990;28;19913;-76
2023/10/10 02:26:54;;;;;;;;;;;;;;;14.63;48.11;99804.38;5051171;28;19974;-76
2023/10/10 02:32:07;;;;;;;;;;;;;;;14.62;47.86;99797.41;5051260;28;19920;-77
2023/10/10 02:34:34;;;;;;;;;;;;;;;14.67;47.45;99804.78;5050915;28;19916;-77
2023/10/10 02:37:13;;;;;;;;;;;;;;;14.74;47.18;99808.28;5054402;28;19916;-77
2023/10/10 02:39:42;;;;;;;;;;;;;;;14.77;48.30;99807.91;5054387;28;20404;-77
2023/10/10 02:42:13;;;;;;;;;;;;;;;14.80;47.46;99808.31;5054292;28;20007;-77
2023/10/10 02:44:46;;;;;;;;;;;;;;;14.84;47.40;99814.06;5054264;28;19909;-76
2023/10/10 02:47:12;;;;;;;;;;;;;;;14.80;47.17;99821.59;5054409;28;19912;-77
2023/10/10 02:49:37;;;;;;;;;;;;;;;14.81;47.45;99817.94;5054004;28;19956;-76
2023/10/10 02:52:06;;;;;;;;;;;;;;;14.83;47.13;99818.56;5054039;28;19939;-77
2023/10/10 02:54:43;;;;;;;;;;;;;;;14.90;47.57;99810.63;5054063;28;19920;-78
2023/10/10 02:57:27;;;;;;;;;;;;;;;14.94;47.65;99807.38;5054206;28;19920;-77
2023/10/10 02:59:59;;;;;;;;;;;;;;;15.03;47.36;99817.84;5053963;28;19951;-77
2023/10/10 03:02:40;;;;;;;;;;;;;;;15.04;47.43;99804.34;5053944;28;19919;-77
2023/10/10 03:05:06;;;;;;;;;;;;;;;15.03;47.57;99808.00;5053876;28;19921;-77
2023/10/10 03:07:32;;;;;;;;;;;;;;;15.05;48.51;99797.19;5054050;28;19913;-76
2023/10/10 03:12:41;;;;;;;;;;;;;;;14.92;48.56;99785.50;5054670;28;19983;-76
2023/10/10 03:15:14;;;;;;;;;;;;;;;14.78;49.21;99785.63;5053777;28;20008;-76
2023/10/10 03:18:14;;;;;;;;;;;;;;;14.71;50.46;99780.28;5053841;28;19912;-76
2023/10/10 03:26:00;;;;;;;;;;;;;;;14.80;48.94;99791.56;5054050;28;19917;-76
2023/10/10 03:30:51;;;;;;;;;;;;;;;14.81;49.10;99798.50;5054104;28;19956;-77
2023/10/10 03:33:36;;;;;;;;;;;;;;;14.75;49.43;99792.16;5053745;28;19999;-77
2023/10/10 03:36:14;;;;;;;;;;;;;;;14.68;49.00;99793.13;5053611;28;20003;-77
2023/10/10 05:25:06;;;;;;;;;;;;;;;14.53;49.91;99841.94;5051728;28;20009;-78
2023/10/10 05:27:32;;;;;;;;;;;;;;;14.54;50.45;99851.53;5052705;28;19924;-77
2023/10/10 05:29:59;;;;;;;;;;;;;;;14.52;50.19;99850.09;5052963;28;19927;-77
2023/10/10 05:32:30;;;;;;;;;;;;;;;14.55;49.76;99858.50;5051504;28;19913;-74
2023/10/10 05:34:55;;;;;;;;;;;;;;;14.55;49.60;99866.47;5059896;28;19917;-78
2023/10/10 05:37:20;;;;;;;;;;;;;;;14.52;50.94;99858.88;5051510;28;19919;-78
2023/10/10 05:39:46;;;;;;;;;;;;;;;14.57;50.49;99866.28;5054747;28;19927;-75
2023/10/10 05:42:13;;;;;;;;;;;;;;;14.63;50.47;99862.81;5051441;28;19912;-77
2023/10/10 05:44:39;;;;;;;;;;;;;;;14.70;49.87;99868.19;5051316;28;19966;-77
2023/10/10 05:47:06;;;;;;;;;;;;;;;14.69;51.70;99866.53;5051397;28;19913;-77
2023/10/10 05:49:32;;;;;;;;;;;;;;;14.74;51.15;99856.13;5052257;28;20011;-76
2023/10/10 05:51:58;;;;;;;;;;;;;;;14.81;50.12;99860.47;5051302;28;19913;-77
2023/10/10 05:54:23;;;;;;;;;;;;;;;14.87;51.59;99858.88;5063105;28;19928;-76
2023/10/10 05:56:49;;;;;;;;;;;;;;;14.93;50.92;99874.88;5067332;28;19916;-77
2023/10/10 05:59:14;;;;;;;;;;;;;;;14.94;51.37;99876.50;5052194;28;20317;-76
2023/10/10 06:01:39;;;;;;;;;;;;;;;15.03;50.81;99881.66;5061684;28;19913;-78
2023/10/10 06:04:07;;;;;;;;;;;;;;;15.08;49.86;99881.88;5071090;28;20032;-77
2023/10/10 06:06:32;;;;;;;;;;;;;;;15.04;51.16;99891.28;5071184;28;20046;-76
2023/10/10 06:09:00;;;;;;;;;;;;;;;15.06;50.33;99890.06;5071921;28;19967;-76
2023/10/10 06:11:27;;;;;;;;;;;;;;;15.14;49.83;99892.53;5074662;28;19919;-77
2023/10/10 06:13:53;;;;;;;;;;;;;;;15.20;50.27;99885.59;5074865;28;19912;-74
2023/10/10 06:16:19;;;;;;;;;;;;;;;15.26;50.37;99892.78;5074875;28;20426;-78
2023/10/10 06:18:46;;;;;;;;;;;;;;;15.25;50.93;99891.97;5074770;28;20003;-76
2023/10/10 06:21:11;;;;;;;;;;;;;;;15.30;51.02;99888.69;5074952;28;19916;-77
2023/10/10 06:23:37;;;;;;;;;;;;;;;15.33;50.87;99896.28;5075028;28;19970;-76
2023/10/10 06:26:03;;;;;;;;;;;;;;;15.41;50.35;99892.63;5074809;28;19912;-78
2023/10/10 06:28:35;;;;;;;;;;;;;;;15.47;50.45;99899.81;5074925;28;20389;-77
2023/10/10 06:31:01;;;;;;;;;;;;;;;15.57;50.39;99889.59;5074620;28;19917;-77
2023/10/10 06:33:29;;;;;;;;;;;;;;;15.69;50.29;99892.53;5074801;28;19923;-77
2023/10/10 06:41:35;;;;;;;;;;;;;;;16.04;50.28;99901.16;5069945;28;19917;-77
2023/10/10 06:44:01;;;;;;;;;;;;;;;16.07;50.46;99898.91;5069929;28;19917;-77
2023/10/10 06:46:32;;;;;;;;;;;;;;;16.08;50.74;99900.56;5068325;28;19981;-77
2023/10/10 06:49:04;;;;;;;;;;;;;;;16.13;50.27;99900.75;5071367;28;19923;-78
2023/10/10 06:51:29;;;;;;;;;;;;;;;16.24;50.26;99909.16;5068169;28;20456;-77
2023/10/10 06:53:56;;;;;;;;;;;;;;;16.29;49.55;99898.69;5058056;28;20000;-76
2023/10/10 06:56:44;;;;;;;;;;;;;;;16.36;50.41;99912.88;5068202;28;19924;-77
2023/10/10 06:59:09;;;;;;;;;;;;;;;16.40;50.73;99912.25;5072152;28;19974;-77
2023/10/10 07:01:34;;;;;;;;;;;;;;;16.48;50.65;99906.69;5057609;28;19916;-78
2023/10/10 07:04:04;;;;;;;;;;;;;;;16.56;50.31;99913.66;5074346;28;19977;-75
2023/10/10 07:06:29;;;;;;;;;;;;;;;16.65;50.27;99908.91;5075846;28;20408;-78
2023/10/10 07:11:39;;;;;;;;;;;;;;;16.88;49.77;99901.31;5073607;28;19969;-77
2023/10/10 07:14:07;;;;;;;;;;;;;;;17.00;49.26;99907.63;5073278;28;19955;-74
2023/10/10 07:16:33;;;;;;;;;;;;;;;17.13;49.04;99906.78;5073878;28;19919;-78
2023/10/10 07:18:58;;;;;;;;;;;;;;;17.25;48.95;99906.94;5072196;28;19916;-74
2023/10/10 07:21:30;;;;;;;;;;;;;;;17.38;49.24;99904.19;5071883;28;20020;-75
2023/10/10 07:24:05;;;;;;;;;;;;;;;17.51;48.22;99897.97;5072454;28;19916;-78
2023/10/10 07:26:31;;;;;;;;;;;;;;;17.66;48.21;99894.00;5068315;28;19917;-76
2023/10/10 07:28:56;;;;;;;;;;;;;;;17.76;47.36;99896.19;5070729;28;19920;-75
2023/10/10 07:31:22;;;;;;;;;;;;;;;17.87;47.24;99898.19;5072527;28;19923;-77
2023/10/10 07:34:34;;;;;;;;;;;;;;;18.02;46.54;99892.53;5057690;28;19924;-77
2023/10/10 07:36:43;;;;;;;;;;;;;;;18.15;46.26;99900.44;5053971;28;19975;-76
2023/10/10 07:41:52;;;;;;;;;;;;;;;18.46;45.90;99896.06;5072149;28;19938;-76
2023/10/10 07:44:22;;;;;;;;;;;;;;;18.59;45.56;99893.28;5072240;28;20011;-75
2023/10/10 07:47:19;;;;;;;;;;;;;;;18.69;45.53;99885.59;5072035;28;20293;-74
2023/10/10 07:49:33;;;;;;;;;;;;;;;18.78;45.63;99886.91;5072238;28;19993;-75
2023/10/10 07:52:02;;;;;;;;;;;;;;;18.88;45.19;99879.19;5073419;28;20377;-75
2023/10/10 07:54:38;;;;;;;;;;;;;;;19.03;45.12;99879.63;5067895;28;19916;-75
2023/10/10 07:57:07;;;;;;;;;;;;;;;19.18;44.71;99886.44;5068993;28;19916;-76
2023/10/10 07:59:36;;;;;;;;;;;;;;;19.31;44.82;99887.09;5072402;28;19923;-77
2023/10/10 08:02:19;;;;;;;;;;;;;;;19.46;43.82;99893.94;5061955;28;19921;-76
2023/10/10 08:04:49;;;;;;;;;;;;;;;19.61;42.62;99897.84;5070525;28;19920;-74
2023/10/10 08:07:18;;;;;;;;;;;;;;;19.72;42.42;99890.91;5070915;28;19920;-75
2023/10/10 08:09:45;;;;;;;;;;;;;;;19.82;41.89;99890.34;5061530;28;19920;-77
2023/10/10 08:12:11;;;;;;;;;;;;;;;19.89;41.52;99902.59;5054346;28;19924;-77
2023/10/10 08:14:39;;;;;;;;;;;;;;;19.96;41.34;99894.44;5071323;28;19928;-77
2023/10/10 08:17:18;;;;;;;;;;;;;;;20.04;40.53;99891.41;5069593;28;19917;-75
2023/10/10 08:19:50;;;;;;;;;;;;;;;20.02;40.74;99888.16;5064802;28;19956;-75
2023/10/10 08:22:15;;;;;;;;;;;;;;;20.00;40.64;99900.97;5065419;28;19920;-74
2023/10/10 08:24:43;;;;;;;;;;;;;;;20.00;40.99;99892.94;5062834;28;19941;-75
2023/10/10 08:27:10;;;;;;;;;;;;;;;20.00;40.75;99898.28;5068025;28;19917;-74
2023/10/10 08:29:35;;;;;;;;;;;;;;;19.97;40.67;99891.53;5068185;28;19921;-75
2023/10/10 08:32:01;;;;;;;;;;;;;;;20.00;40.72;99887.56;5066501;28;19977;-77
2023/10/10 08:34:26;;;;;;;;;;;;;;;20.03;40.53;99884.44;5070293;28;19917;-75
2023/10/10 08:36:56;;;;;;;;;;;;;;;20.08;40.86;99892.63;5071361;28;19916;-75
2023/10/10 08:41:52;;;;;;;;;;;;;;;20.25;40.79;99890.06;5071965;28;19912;-76
2023/10/10 08:44:18;;;;;;;;;;;;;;;20.38;40.08;99889.03;5065333;28;19924;-76
2023/10/10 08:46:48;;;;;;;;;;;;;;;20.49;40.05;99885.53;5057637;28;19916;-77
2023/10/10 08:49:14;;;;;;;;;;;;;;;20.53;39.35;99890.22;5051635;28;19922;-77
2023/10/10 08:51:41;;;;;;;;;;;;;;;20.56;39.70;99895.09;5064802;28;19938;-76
2023/10/10 08:54:10;;;;;;;;;;;;;;;20.66;39.08;99902.56;5050502;28;20008;-74
2023/10/10 08:56:37;;;;;;;;;;;;;;;20.80;39.02;99906.63;5068377;28;19920;-75
2023/10/10 08:59:03;;;;;;;;;;;;;;;20.91;38.32;99903.13;5069577;28;20007;-77
2023/10/10 09:01:33;;;;;;;;;;;;;;;21.01;38.62;99909.75;5071943;28;19975;-76
2023/10/10 09:03:58;;;;;;;;;;;;;;;21.10;37.90;99911.03;5068112;28;19920;-75
2023/10/10 09:06:33;;;;;;;;;;;;;;;21.11;38.00;99912.66;5054697;28;19913;-74
2023/10/10 09:09:00;;;;;;;;;;;;;;;21.06;38.07;99915.25;5051666;28;19948;-76
2023/10/10 09:11:25;;;;;;;;;;;;;;;21.04;38.88;99914.66;5051806;28;20312;-74
2023/10/10 09:13:53;;;;;;;;;;;;;;;21.07;38.72;99915.00;5055367;28;20008;-74
2023/10/10 09:16:42;;;;;;;;;;;;;;;21.06;38.38;99920.59;5061786;28;20358;-75
2023/10/10 09:19:08;;;;;;;;;;;;;;;21.03;38.43;99916.53;5071690;28;19966;-76
2023/10/10 09:21:44;;;;;;;;;;;;;;;21.03;38.68;99913.84;5071783;28;19972;-77
2023/10/10 09:24:27;;;;;;;;;;;;;;;21.06;38.74;99918.75;5065825;28;20384;-75
2023/10/10 09:26:56;;;;;;;;;;;;;;;21.13;38.49;99916.72;5069507;28;19916;-75
2023/10/10 09:29:32;;;;;;;;;;;;;;;21.24;37.79;99915.09;5070921;28;20432;-75
2023/10/10 09:31:59;;;;;;;;;;;;;;;21.40;37.16;99908.16;5071574;28;19990;-74
2023/10/10 09:34:28;;;;;;;;;;;;;;;21.61;37.37;99915.56;5071343;28;19913;-76
2023/10/10 09:36:57;;;;;;;;;;;;;;;21.77;37.31;99916.66;5071344;28;20393;-78
2023/10/10 09:39:35;;;;;;;;;;;;;;;21.90;37.02;99921.72;5071727;28;19917;-76
2023/10/10 09:42:01;;;;;;;;;;;;;;;22.13;36.91;99915.41;5071767;28;19913;-74
2023/10/10 09:44:49;;;;;;;;;;;;;;;22.35;36.08;99912.81;5073256;28;19935;-77
2023/10/10 09:47:17;;;;;;;;;;;;;;;22.59;36.13;99916.94;5074320;28;20468;-75
2023/10/10 09:49:44;;;;;;;;;;;;;;;22.73;36.57;99899.38;5075217;28;19917;-74
2023/10/10 09:57:43;;;;;;;;;;;;;;;22.87;36.14;99905.25;5058778;28;20324;-77
2023/10/10 10:00:30;;;;;;;;;;;;;;;22.81;36.31;99895.47;5088616;28;19916;-74
2023/10/10 10:02:59;;;;;;;;;;;;;;;22.99;36.08;99905.94;5078070;28;20412;-77
2023/10/10 10:05:28;;;;;;;;;;;;;;;22.97;35.96;99891.09;5071696;28;20061;-75
2023/10/10 10:07:57;;;;;;;;;;;;;;;22.96;35.92;99890.28;5074320;28;19913;-75
2023/10/10 10:10:34;;;;;;;;;;;;;;;23.13;36.24;99887.53;5063401;28;19943;-76
2023/10/10 10:13:13;;;;;;;;;;;;;;;22.82;35.00;99808.25;5075017;28;20407;-76
2023/10/10 10:15:53;;;;;;;;;;;;;;;23.16;35.08;99884.34;5082339;28;19968;-76
2023/10/10 10:18:29;;;;;;;;;;;;;;;23.09;35.48;99889.09;5094797;28;19912;-77
2023/10/10 10:23:55;;;;;;;;;;;;;;;22.80;36.57;99881.19;5075307;28;20396;-76
2023/10/10 10:26:41;;;;;;;;;;;;;;;22.66;36.92;99882.59;5066222;28;19924;-74
2023/10/10 10:29:16;;;;;;;;;;;;;;;22.59;36.85;99879.25;5077534;28;19924;-74
2023/10/10 10:31:49;;;;;;;;;;;;;;;22.57;37.22;99875.19;5074280;28;19955;-75
2023/10/10 10:34:31;;;;;;;;;;;;;;;22.55;37.13;99883.50;5074018;28;19924;-75
2023/10/10 10:37:07;;;;;;;;;;;;;;;22.56;37.12;99887.84;5072799;28;19924;-77
2023/10/10 10:39:35;;;;;;;;;;;;;;;22.50;37.18;99878.88;5071792;28;19958;-76
2023/10/10 10:42:00;;;;;;;;;;;;;;;22.50;37.20;99875.38;5068364;28;20003;-76
2023/10/10 10:44:44;;;;;;;;;;;;;;;22.66;36.93;99881.78;5073519;28;20027;-75
2023/10/10 10:47:10;;;;;;;;;;;;;;;22.72;36.67;99873.50;5067400;28;19967;-77
2023/10/10 10:49:39;;;;;;;;;;;;;;;22.71;36.37;99868.38;5074092;28;19927;-76
2023/10/10 10:52:17;;;;;;;;;;;;;;;22.69;36.42;99865.13;5069150;28;20282;-76
2023/10/10 10:54:43;;;;;;;;;;;;;;;22.77;37.13;99862.81;5065899;28;19923;-75
2023/10/10 10:57:27;;;;;;;;;;;;;;;23.10;36.51;99859.22;5073438;28;19913;-75
2023/10/10 10:59:55;;;;;;;;;;;;;;;23.54;35.84;99864.53;5072833;28;19912;-75
2023/10/10 11:02:30;;;;;;;;;;;;;;;23.84;35.20;99868.63;5073859;28;19917;-76
2023/10/10 11:04:55;;;;;;;;;;;;;;;24.02;35.39;99869.03;5072910;28;19936;-76
2023/10/10 11:07:28;;;;;;;;;;;;;;;24.17;34.28;99857.53;5073085;28;20012;-75
2023/10/10 11:09:54;;;;;;;;;;;;;;;24.33;35.09;99858.50;5057749;28;20999;-76
2023/10/10 11:12:31;;;;;;;;;;;;;;;24.57;34.32;99848.13;5055351;28;20366;-76
2023/10/10 11:14:56;;;;;;;;;;;;;;;24.69;34.04;99854.94;5053841;28;19943;-76
2023/10/10 11:17:21;;;;;;;;;;;;;;;24.85;33.96;99849.59;5059865;28;19912;-76
2023/10/10 11:19:48;;;;;;;;;;;;;;;24.76;33.61;99843.91;5071781;28;20381;-76
2023/10/10 11:22:38;;;;;;;;;;;;;;;24.53;34.54;99842.44;5071162;28;19912;-77
2023/10/10 11:25:04;;;;;;;;;;;;;;;24.31;34.62;99849.84;5060564;28;19924;-77
2023/10/10 11:27:32;;;;;;;;;;;;;;;24.13;34.92;99848.34;5069938;28;19912;-76
2023/10/10 11:30:01;;;;;;;;;;;;;;;24.02;34.69;99833.97;5069190;28;20316;-75
2023/10/10 11:32:36;;;;;;;;;;;;;;;24.05;34.99;99844.25;5071550;28;20323;-77
2023/10/10 11:37:48;;;;;;;;;;;;;;;24.16;34.96;99833.53;5062608;28;19939;-77
2023/10/10 11:40:31;;;;;;;;;;;;;;;24.25;35.11;99837.38;5071813;28;19912;-75
2023/10/10 11:43:06;;;;;;;;;;;;;;;24.23;35.26;99831.41;5070364;28;20015;-76
2023/10/10 11:45:38;;;;;;;;;;;;;;;24.19;35.47;99831.13;5070433;28;20403;-77
2023/10/10 11:48:14;;;;;;;;;;;;;;;24.25;34.87;99826.56;5053416;28;19916;-75
2023/10/10 11:50:43;;;;;;;;;;;;;;;24.27;34.98;99821.75;5061885;28;19916;-76
2023/10/10 11:53:12;;;;;;;;;;;;;;;24.27;35.28;99830.66;5070868;28;19970;-76
2023/10/10 11:55:40;;;;;;;;;;;;;;;24.25;35.40;99834.66;5067483;28;19920;-76
2023/10/10 11:58:08;;;;;;;;;;;;;;;24.16;35.02;99830.81;5065585;28;20399;-75
2023/10/10 12:00:43;;;;;;;;;;;;;;;24.04;35.66;99829.13;5070656;28;19924;-76
2023/10/10 12:03:09;;;;;;;;;;;;;;;23.97;35.88;99831.25;5054271;28;20360;-78
2023/10/10 12:08:06;;;;;;;;;;;;;;;23.76;35.85;99827.56;5070931;28;20356;-74
2023/10/10 12:10:52;;;;;;;;;;;;;;;23.66;36.61;99826.66;5070518;28;20481;-75
2023/10/10 12:15:55;;;;;;;;;;;;;;;23.43;37.10;99833.16;5072699;28;19919;-76
2023/10/10 12:18:20;;;;;;;;;;;;;;;23.43;37.31;99833.97;5070884;28;19916;-76
2023/10/10 12:20:45;;;;;;;;;;;;;;;23.43;37.06;99828.59;5070881;28;19923;-77
2023/10/10 12:23:11;;;;;;;;;;;;;;;23.39;37.33;99838.25;5072158;28;19989;-77
2023/10/10 12:25:42;;;;;;;;;;;;;;;23.28;37.58;99835.72;5072367;28;19920;-77
2023/10/10 12:28:09;;;;;;;;;;;;;;;23.25;37.85;99831.63;5070390;28;19912;-77
2023/10/10 12:30:40;;;;;;;;;;;;;;;23.30;37.86;99833.56;5068978;28;19928;-76
2023/10/10 12:33:05;;;;;;;;;;;;;;;23.23;37.41;99830.25;5068098;28;19917;-77
2023/10/10 12:35:30;;;;;;;;;;;;;;;23.23;37.71;99827.56;5063807;28;19923;-78
2023/10/10 12:38:01;;;;;;;;;;;;;;;23.23;38.03;99822.19;5068214;28;19917;-76
2023/10/10 12:40:26;;;;;;;;;;;;;;;23.20;38.04;99817.31;5071876;28;20450;-76
2023/10/10 12:42:52;;;;;;;;;;;;;;;23.20;37.71;99811.91;5072231;28;19913;-76
2023/10/10 12:45:17;;;;;;;;;;;;;;;23.28;38.50;99819.53;5071944;28;19919;-75
2023/10/10 12:47:43;;;;;;;;;;;;;;;23.34;38.22;99826.59;5072285;28;19920;-74
2023/10/10 12:50:13;;;;;;;;;;;;;;;23.39;37.55;99815.88;5071736;28;19970;-76
2023/10/10 12:52:45;;;;;;;;;;;;;;;23.36;37.77;99825.28;5071730;28;19917;-75
2023/10/10 12:55:10;;;;;;;;;;;;;;;23.34;37.85;99830.13;5069116;28;19939;-76
2023/10/10 12:57:36;;;;;;;;;;;;;;;23.31;38.10;99825.22;5067247;28;20389;-77
2023/10/10 13:02:46;;;;;;;;;;;;;;;23.22;38.34;99831.34;5072237;28;19919;-76
2023/10/10 13:05:12;;;;;;;;;;;;;;;23.14;38.32;99828.03;5071625;28;19920;-77
2023/10/10 13:07:39;;;;;;;;;;;;;;;23.17;37.96;99831.28;5070935;28;19916;-77
2023/10/10 13:10:10;;;;;;;;;;;;;;;23.11;38.32;99825.03;5071915;28;19916;-75
2023/10/10 13:12:36;;;;;;;;;;;;;;;23.07;38.38;99821.22;5071757;28;19919;-77
2023/10/10 13:15:27;;;;;;;;;;;;;;;23.04;38.46;99819.84;5071956;28;19935;-76
2023/10/10 13:17:50;;;;;;;;;;;;;;;23.01;38.88;99820.31;5071432;28;19908;-75
2023/10/10 13:20:17;;;;;;;;;;;;;;;22.93;38.75;99823.44;5070807;28;19921;-76
2023/10/10 13:22:43;;;;;;;;;;;;;;;22.87;39.00;99824.47;5068190;28;20003;-75
2023/10/10 13:25:10;;;;;;;;;;;;;;;22.84;39.05;99824.97;5064386;28;19924;-74
2023/10/10 13:27:35;;;;;;;;;;;;;;;22.82;39.15;99827.91;5066246;28;19931;-74
2023/10/10 13:30:00;;;;;;;;;;;;;;;22.82;39.13;99827.09;5068086;28;20305;-76
2023/10/10 13:32:26;;;;;;;;;;;;;;;22.82;39.20;99824.41;5067538;28;19999;-74
2023/10/10 13:34:52;;;;;;;;;;;;;;;22.82;38.92;99827.09;5070649;28;19924;-76
2023/10/10 13:37:18;;;;;;;;;;;;;;;22.79;38.96;99831.06;5060620;28;19920;-77
2023/10/10 13:39:43;;;;;;;;;;;;;;;22.78;39.41;99834.81;5052713;28;19982;-76
2023/10/10 13:42:09;;;;;;;;;;;;;;;22.71;39.19;99842.28;5066641;28;20401;-76
2023/10/10 13:44:34;;;;;;;;;;;;;;;22.67;39.39;99837.66;5067706;28;19997;-77
2023/10/10 13:47:00;;;;;;;;;;;;;;;22.65;39.14;99837.91;5071645;28;20438;-75
2023/10/10 13:49:25;;;;;;;;;;;;;;;22.64;39.56;99841.66;5070465;28;19921;-75
2023/10/10 13:51:52;;;;;;;;;;;;;;;22.64;39.31;99832.75;5072192;28;19912;-76
2023/10/10 13:54:19;;;;;;;;;;;;;;;22.60;39.76;99843.22;5069107;28;19920;-77
2023/10/10 13:56:44;;;;;;;;;;;;;;;22.60;39.49;99842.41;5069082;28;19916;-77
2023/10/10 13:59:11;;;;;;;;;;;;;;;22.56;40.00;99835.88;5062597;28;20038;-75
2023/10/10 14:01:36;;;;;;;;;;;;;;;22.55;39.65;99839.63;5069883;28;19921;-77
2023/10/10 14:07:05;;;;;;;;;;;;;;;22.57;39.79;99842.91;5041806;28;19917;-74
2023/10/10 14:09:33;;;;;;;;;;;;;;;22.58;40.04;99842.66;5051300;28;20316;-75
2023/10/10 14:12:03;;;;;;;;;;;;;;;22.58;40.31;99852.59;5066193;28;19921;-76
2023/10/10 14:14:29;;;;;;;;;;;;;;;22.54;39.93;99844.22;5055624;28;20310;-74
2023/10/10 14:16:54;;;;;;;;;;;;;;;22.50;39.81;99848.47;5066363;28;20030;-75
2023/10/10 14:19:25;;;;;;;;;;;;;;;22.49;39.71;99853.03;5067339;28;19915;-75
2023/10/10 14:21:54;;;;;;;;;;;;;;;22.42;40.27;99847.00;5070119;28;19916;-76
2023/10/10 14:24:19;;;;;;;;;;;;;;;22.43;40.02;99853.22;5060182;28;19916;-76
2023/10/10 14:26:45;;;;;;;;;;;;;;;22.39;40.09;99844.81;5069114;28;20004;-76
2023/10/10 14:29:13;;;;;;;;;;;;;;;22.41;40.34;99849.94;5069323;28;19920;-76
2023/10/10 14:31:42;;;;;;;;;;;;;;;22.40;40.14;99861.78;5073325;28;20304;-76
2023/10/10 14:34:08;;;;;;;;;;;;;;;22.37;40.46;99856.88;5074650;28;19923;-76
2023/10/10 14:36:39;;;;;;;;;;;;;;;22.36;40.74;99858.75;5062736;28;19970;-77
2023/10/10 14:39:04;;;;;;;;;;;;;;;22.35;40.75;99862.50;5071297;28;20570;-77
2023/10/10 14:41:32;;;;;;;;;;;;;;;22.32;40.89;99857.63;5074091;28;19999;-76
2023/10/10 14:44:00;;;;;;;;;;;;;;;22.27;41.66;99872.84;5074727;28;20393;-76
2023/10/10 14:46:32;;;;;;;;;;;;;;;22.25;41.65;99869.59;5074702;28;19999;-77
2023/10/10 14:52:03;;;;;;;;;;;;;;;22.19;42.74;99872.22;5062309;28;19916;-76
2023/10/10 14:54:29;;;;;;;;;;;;;;;22.15;42.70;99871.06;5074622;28;19916;-75
2023/10/10 14:56:54;;;;;;;;;;;;;;;22.11;43.21;99877.19;5074468;28;20404;-76
2023/10/10 14:59:25;;;;;;;;;;;;;;;22.10;43.01;99880.94;5074625;28;19916;-76
2023/10/10 15:01:51;;;;;;;;;;;;;;;22.10;42.68;99883.63;5074684;28;19912;-76
2023/10/10 15:04:17;;;;;;;;;;;;;;;21.99;44.08;99890.69;5074074;28;19924;-77
2023/10/10 15:06:44;;;;;;;;;;;;;;;21.96;43.67;99896.53;5074275;28;19912;-77
2023/10/10 15:09:13;;;;;;;;;;;;;;;21.99;43.07;99893.38;5074094;28;19995;-76
2023/10/10 15:11:41;;;;;;;;;;;;;;;21.95;43.37;99891.41;5074269;28;19912;-75
2023/10/10 15:14:09;;;;;;;;;;;;;;;21.95;43.69;99900.28;5073953;28;19959;-76
2023/10/10 15:16:35;;;;;;;;;;;;;;;21.96;43.45;99906.50;5074006;28;19977;-76
2023/10/10 15:19:03;;;;;;;;;;;;;;;21.94;44.23;99906.72;5073794;28;20374;-76
2023/10/10 15:21:32;;;;;;;;;;;;;;;21.96;43.97;99915.38;5073707;28;20469;-76
2023/10/10 15:24:14;;;;;;;;;;;;;;;21.93;43.62;99915.84;5073771;28;20428;-75
2023/10/10 15:26:40;;;;;;;;;;;;;;;21.97;43.66;99925.06;5074033;28;19912;-76
2023/10/10 15:29:10;;;;;;;;;;;;;;;21.98;43.71;99928.56;5073617;28;20039;-77
2023/10/10 15:31:35;;;;;;;;;;;;;;;21.99;43.48;99932.88;5073482;28;19923;-77
2023/10/10 15:34:00;;;;;;;;;;;;;;;21.99;43.94;99925.63;5073558;28;19912;-75
2023/10/10 15:36:30;;;;;;;;;;;;;;;21.96;43.88;99930.69;5073596;28;19916;-78
2023/10/10 15:39:05;;;;;;;;;;;;;;;21.92;43.53;99941.09;5074083;28;19916;-78
2023/10/10 15:41:31;;;;;;;;;;;;;;;21.91;43.72;99942.16;5072897;28;20377;-73
2023/10/10 15:44:02;;;;;;;;;;;;;;;21.91;44.01;99944.84;5073685;28;19927;-76